Time;durP1;ratioP1;P1;durP2;ratioP2;P2;SDS_P1;SDS_P2;PMS_P1;PMS_P2;Temp;Humidity;BMP_temperature;BMP_pressure;BME280_temperature;BME280_humidity;BME280_pressure;Samples;Min_cycle;Max_cycle;Signal;HPM_P1;HPM_P2
2022/07/10 00:01:40;;;;;;;11.20;2.05;;;14.90;99.90;;;;;;5035664;28;20036;-72
2022/07/10 00:04:07;;;;;;;7.78;1.17;;;16.10;99.90;;;;;;5052354;28;20041;-72
2022/07/10 00:06:35;;;;;;;8.23;1.75;;;17.10;99.90;;;;;;5032010;28;20030;-73
2022/07/10 00:09:02;;;;;;;9.13;2.05;;;17.90;99.90;;;;;;5036598;28;20394;-72
2022/07/10 00:11:29;;;;;;;9.90;2.15;;;18.30;99.90;;;;;;5039762;28;20024;-72
2022/07/10 00:13:57;;;;;;;8.25;2.08;;;18.20;99.90;;;;;;5060430;28;20505;-72
2022/07/10 00:16:24;;;;;;;8.65;2.45;;;17.60;99.90;;;;;;5061270;28;20115;-72
2022/07/10 00:18:52;;;;;;;7.00;1.80;;;17.00;99.90;;;;;;5031282;28;20567;-72
2022/07/10 00:21:20;;;;;;;10.63;2.08;;;16.50;99.90;;;;;;5058408;28;20033;-72
2022/07/10 00:23:47;;;;;;;9.20;1.70;;;16.10;99.90;;;;;;5071400;28;20020;-73
2022/07/10 00:26:15;;;;;;;13.70;1.63;;;15.80;99.90;;;;;;5042965;28;20125;-72
2022/07/10 00:28:42;;;;;;;8.75;1.92;;;15.50;99.90;;;;;;5040888;28;20143;-73
2022/07/10 00:31:12;;;;;;;5.00;1.52;;;15.40;99.90;;;;;;5039395;28;20029;-72
2022/07/10 00:33:40;;;;;;;11.77;2.22;;;15.30;99.90;;;;;;5031416;28;20503;-72
2022/07/10 00:36:07;;;;;;;8.55;1.88;;;15.20;99.90;;;;;;5031143;28;20060;-73
2022/07/10 00:38:35;;;;;;;13.02;1.75;;;15.00;99.90;;;;;;5036384;28;20021;-72
2022/07/10 00:41:02;;;;;;;11.00;1.85;;;14.90;99.90;;;;;;5044865;28;20596;-72
2022/07/10 00:43:58;;;;;;;7.88;1.90;;;14.70;99.90;;;;;;5050881;28;20033;-73
2022/07/10 00:46:28;;;;;;;11.10;1.40;;;15.10;99.90;;;;;;5059913;28;20027;-72
2022/07/10 00:48:55;;;;;;;16.60;3.92;;;15.60;99.90;;;;;;5042015;28;20043;-72
2022/07/10 00:51:26;;;;;;;9.13;2.42;;;16.10;99.90;;;;;;5031862;28;20133;-71
2022/07/10 00:53:53;;;;;;;12.20;2.08;;;16.20;99.90;;;;;;5048041;28;20055;-71
2022/07/10 00:56:26;;;;;;;9.90;2.53;;;16.10;99.90;;;;;;5033261;28;20037;-71
2022/07/10 00:58:55;;;;;;;10.18;2.20;;;16.00;99.90;;;;;;5031153;28;20086;-71
2022/07/10 01:01:25;;;;;;;8.45;2.38;;;15.90;99.90;;;;;;5038207;28;20108;-75
2022/07/10 01:03:52;;;;;;;9.27;2.75;;;15.60;99.90;;;;;;5044437;28;20108;-80
2022/07/10 01:06:20;;;;;;;7.13;2.42;;;15.40;99.90;;;;;;5030826;28;20584;-77
2022/07/10 01:08:47;;;;;;;11.82;2.42;;;15.10;99.90;;;;;;5032055;28;20044;-78
2022/07/10 01:11:15;;;;;;;7.70;1.52;;;14.90;99.90;;;;;;5044025;28;20126;-78
2022/07/10 01:13:44;;;;;;;11.45;2.75;;;14.80;99.90;;;;;;5030283;28;20029;-78
2022/07/10 01:16:12;;;;;;;9.48;1.60;;;15.50;99.90;;;;;;5030318;28;20069;-76
2022/07/10 01:18:40;;;;;;;9.80;1.83;;;16.80;99.90;;;;;;5030342;28;20036;-76
2022/07/10 01:21:24;;;;;;;12.13;1.33;;;18.30;99.90;;;;;;5039007;28;20162;-80
2022/07/10 01:23:52;;;;;;;7.80;1.95;;;19.60;99.90;;;;;;5041908;28;20028;-74
2022/07/10 01:26:24;;;;;;;11.23;1.48;;;20.20;99.90;;;;;;5034795;28;20036;-75
2022/07/10 01:28:53;;;;;;;3.15;0.80;;;20.80;99.90;;;;;;5035425;28;20031;-75
2022/07/10 01:31:29;;;;;;;10.20;1.38;;;21.40;99.90;;;;;;5031029;28;20029;-75
2022/07/10 01:33:57;;;;;;;7.90;2.03;;;21.00;99.90;;;;;;5045683;28;20029;-75
2022/07/10 01:36:25;;;;;;;6.28;1.55;;;19.90;99.90;;;;;;5031105;28;20033;-76
2022/07/10 01:38:53;;;;;;;7.20;2.08;;;18.70;99.90;;;;;;5035847;28;20029;-75
2022/07/10 01:41:20;;;;;;;10.57;1.55;;;17.80;99.90;;;;;;5032187;28;20052;-77
2022/07/10 01:43:48;;;;;;;5.38;1.33;;;16.90;99.90;;;;;;5029868;28;20113;-75
2022/07/10 01:46:16;;;;;;;8.32;1.63;;;16.50;99.90;;;;;;5030136;28;20699;-74
2022/07/10 01:48:44;;;;;;;8.93;1.60;;;16.80;99.90;;;;;;5029390;28;20125;-75
2022/07/10 01:51:12;;;;;;;11.57;2.33;;;16.70;99.90;;;;;;5029941;28;20762;-75
2022/07/10 01:53:40;;;;;;;8.98;3.15;;;17.20;99.90;;;;;;5029733;28;20050;-75
2022/07/10 01:56:09;;;;;;;14.98;3.13;;;18.60;99.90;;;;;;5031243;28;20487;-76
2022/07/10 01:58:37;;;;;;;12.25;2.17;;;20.00;99.90;;;;;;5033536;28;20029;-77
2022/07/10 02:01:05;;;;;;;12.63;1.63;;;21.00;99.90;;;;;;5030686;28;20095;-76
2022/07/10 02:06:18;;;;;;;13.87;1.93;;;22.00;99.20;;;;;;5030350;28;20052;-76
2022/07/10 02:08:46;;;;;;;9.90;1.90;;;22.20;99.30;;;;;;5030216;28;20037;-75
2022/07/10 02:11:13;;;;;;;8.05;1.55;;;22.40;98.50;;;;;;5033252;28;20026;-77
2022/07/10 02:13:41;;;;;;;9.00;1.35;;;22.80;98.30;;;;;;5048613;28;20021;-76
2022/07/10 02:16:10;;;;;;;7.57;2.40;;;22.70;97.10;;;;;;5040277;28;20536;-74
2022/07/10 02:18:38;;;;;;;6.20;1.55;;;22.70;96.80;;;;;;5045177;28;20446;-76
2022/07/10 02:21:06;;;;;;;6.75;1.55;;;22.80;96.90;;;;;;5043166;28;20051;-75
2022/07/10 02:23:34;;;;;;;11.15;2.15;;;23.20;97.00;;;;;;5029944;28;20029;-75
2022/07/10 02:26:02;;;;;;;7.65;1.25;;;23.40;96.30;;;;;;5029417;28;20025;-75
2022/07/10 02:28:29;;;;;;;4.78;1.13;;;23.30;95.60;;;;;;5031528;28;20060;-76
2022/07/10 02:30:57;;;;;;;6.10;1.15;;;23.40;95.90;;;;;;5029258;28;20089;-75
2022/07/10 02:33:24;;;;;;;4.07;0.85;;;23.20;95.90;;;;;;5031979;28;20395;-75
2022/07/10 02:35:52;;;;;;;7.57;1.52;;;23.10;95.40;;;;;;5029806;28;20464;-75
2022/07/10 02:38:20;;;;;;;6.47;2.15;;;23.30;96.00;;;;;;5028864;28;20223;-75
2022/07/10 02:40:48;;;;;;;3.53;1.40;;;23.10;96.60;;;;;;5038828;28;20444;-76
2022/07/10 02:43:15;;;;;;;5.38;1.33;;;22.90;95.60;;;;;;5052543;28;20029;-74
2022/07/10 02:45:42;;;;;;;8.43;1.23;;;22.30;96.70;;;;;;5036325;28;20495;-75
2022/07/10 02:48:10;;;;;;;6.63;1.60;;;21.30;97.50;;;;;;5051716;28;20033;-76
2022/07/10 02:50:37;;;;;;;7.28;1.17;;;20.00;98.70;;;;;;5041267;28;20038;-75
2022/07/10 02:53:04;;;;;;;6.80;1.27;;;19.20;99.90;;;;;;5032157;28;20041;-75
2022/07/10 02:55:33;;;;;;;8.10;2.05;;;18.40;99.90;;;;;;5037657;28;20041;-76
2022/07/10 02:58:00;;;;;;;5.53;1.55;;;17.80;99.90;;;;;;5052528;28;20025;-76
2022/07/10 03:00:28;;;;;;;7.80;1.85;;;17.40;99.90;;;;;;5042107;28;20038;-75
2022/07/10 03:02:56;;;;;;;6.03;2.60;;;17.10;99.90;;;;;;5034172;28;20048;-75
2022/07/10 03:05:24;;;;;;;13.48;3.00;;;16.70;99.90;;;;;;5033597;28;20044;-75
2022/07/10 03:07:51;;;;;;;6.82;1.80;;;16.30;99.90;;;;;;5032986;28;20029;-74
2022/07/10 03:10:18;;;;;;;6.30;2.30;;;16.20;99.90;;;;;;5037169;28;20034;-74
2022/07/10 03:12:46;;;;;;;13.55;2.03;;;16.00;99.90;;;;;;5032747;28;20111;-75
2022/07/10 03:15:14;;;;;;;6.75;0.98;;;16.00;99.90;;;;;;5032748;28;20038;-75
2022/07/10 03:17:42;;;;;;;6.43;1.63;;;16.10;99.90;;;;;;5033232;28;20100;-75
2022/07/10 03:20:10;;;;;;;10.10;2.13;;;16.20;99.90;;;;;;5036252;28;20048;-76
2022/07/10 03:22:38;;;;;;;10.95;2.03;;;16.20;99.90;;;;;;5032455;28;20106;-76
2022/07/10 03:25:06;;;;;;;13.60;2.67;;;16.20;99.90;;;;;;5036156;28;20052;-75
2022/07/10 03:27:33;;;;;;;7.00;2.20;;;16.20;99.90;;;;;;5032445;28;20021;-76
2022/07/10 03:30:01;;;;;;;9.63;2.03;;;16.30;99.90;;;;;;5032450;28;20047;-76
2022/07/10 03:32:28;;;;;;;7.53;1.80;;;16.30;99.90;;;;;;5032330;28;20434;-76
2022/07/10 03:34:56;;;;;;;8.80;1.27;;;16.20;99.90;;;;;;5039323;28;20075;-76
2022/07/10 03:37:23;;;;;;;8.52;1.40;;;16.10;99.90;;;;;;5038989;28;20052;-76
2022/07/10 03:39:50;;;;;;;7.57;1.17;;;16.10;99.90;;;;;;5032512;28;20437;-76
2022/07/10 03:42:18;;;;;;;8.65;2.15;;;16.10;99.90;;;;;;5031671;28;20487;-76
2022/07/10 03:44:45;;;;;;;7.30;1.73;;;16.10;99.90;;;;;;5032193;28;20049;-76
2022/07/10 03:47:13;;;;;;;10.13;2.05;;;15.90;99.90;;;;;;5032082;28;20430;-76
2022/07/10 03:49:41;;;;;;;7.75;1.92;;;15.80;99.90;;;;;;5032529;28;20056;-76
2022/07/10 03:52:09;;;;;;;6.97;1.23;;;15.90;99.90;;;;;;5030609;28;20037;-75
2022/07/10 03:54:36;;;;;;;7.55;2.42;;;15.90;99.90;;;;;;5032770;28;20099;-76
2022/07/10 03:59:49;;;;;;;6.68;1.77;;;16.10;99.90;;;;;;5049912;28;20043;-75
2022/07/10 04:02:16;;;;;;;9.27;1.75;;;15.90;99.90;;;;;;5034778;28;20569;-75
2022/07/10 04:04:43;;;;;;;8.25;1.60;;;15.80;99.90;;;;;;5044135;28;20838;-75
2022/07/10 04:07:12;;;;;;;7.47;1.48;;;15.60;99.90;;;;;;5045176;28;20036;-75
2022/07/10 04:09:39;;;;;;;4.85;1.80;;;15.50;99.90;;;;;;5046835;28;20377;-76
2022/07/10 04:12:07;;;;;;;5.18;1.48;;;15.40;99.90;;;;;;5038820;28;20025;-75
2022/07/10 04:14:34;;;;;;;6.95;1.42;;;15.40;99.90;;;;;;5031764;28;20041;-78
2022/07/10 04:17:02;;;;;;;8.60;0.98;;;15.50;99.90;;;;;;5050947;28;20537;-78
2022/07/10 04:19:29;;;;;;;8.07;1.48;;;15.40;99.90;;;;;;5049603;28;20446;-75
2022/07/10 04:21:56;;;;;;;7.63;1.40;;;15.50;99.90;;;;;;5031051;28;20033;-75
2022/07/10 04:24:24;;;;;;;6.80;1.20;;;15.60;99.90;;;;;;5031405;28;20029;-75
2022/07/10 04:26:51;;;;;;;7.18;1.13;;;15.60;99.90;;;;;;5030778;28;20104;-76
2022/07/10 04:29:18;;;;;;;2.85;0.63;;;15.60;99.90;;;;;;5033046;28;20039;-75
2022/07/10 04:31:46;;;;;;;4.45;1.10;;;15.60;99.90;;;;;;5050908;28;20029;-76
2022/07/10 04:34:13;;;;;;;4.50;0.80;;;15.70;99.90;;;;;;5033428;28;20033;-76
2022/07/10 04:36:40;;;;;;;3.83;0.55;;;15.70;99.90;;;;;;5032004;28;20029;-76
2022/07/10 04:39:08;;;;;;;4.03;0.80;;;15.60;99.90;;;;;;5036626;28;20120;-77
2022/07/10 04:41:35;;;;;;;7.85;1.00;;;15.50;99.90;;;;;;5039267;28;20406;-74
2022/07/10 04:44:02;;;;;;;6.82;1.60;;;15.50;99.90;;;;;;5044486;28;20329;-75
2022/07/10 04:46:30;;;;;;;5.80;1.02;;;15.50;99.90;;;;;;5048422;28;20090;-75
2022/07/10 04:48:58;;;;;;;5.65;0.90;;;15.50;99.90;;;;;;5050672;28;20050;-77
2022/07/10 04:51:25;;;;;;;1.80;0.60;;;15.50;99.90;;;;;;5032480;28;20037;-75
2022/07/10 04:53:52;;;;;;;7.00;1.23;;;15.50;99.90;;;;;;5030422;28;20086;-75
2022/07/10 04:56:20;;;;;;;6.10;0.82;;;15.50;99.90;;;;;;5030572;28;20488;-76
2022/07/10 04:58:48;;;;;;;1.77;1.15;;;15.50;99.90;;;;;;5030440;28;20091;-74
2022/07/10 05:01:15;;;;;;;5.40;1.30;;;15.50;99.90;;;;;;5033352;28;20414;-75
2022/07/10 05:03:42;;;;;;;3.70;0.60;;;15.40;99.90;;;;;;5031886;28;20030;-76
2022/07/10 05:06:10;;;;;;;1.63;0.90;;;15.40;99.90;;;;;;5033090;28;20129;-76
2022/07/10 05:08:37;;;;;;;6.65;0.80;;;15.40;99.90;;;;;;5030535;28;20154;-75
2022/07/10 05:11:05;;;;;;;2.85;0.47;;;15.30;99.90;;;;;;5031691;28;20151;-75
2022/07/10 05:13:32;;;;;;;3.13;0.60;;;15.30;99.90;;;;;;5030820;28;20041;-74
2022/07/10 05:15:59;;;;;;;4.72;0.50;;;15.30;99.90;;;;;;5034822;28;20041;-75
2022/07/10 05:18:27;;;;;;;4.95;0.43;;;15.40;99.90;;;;;;5040197;28;20427;-75
2022/07/10 05:20:54;;;;;;;2.92;0.77;;;15.60;99.90;;;;;;5040894;28;20025;-75
2022/07/10 05:23:21;;;;;;;3.28;0.98;;;15.70;99.90;;;;;;5050521;28;20031;-74
2022/07/10 05:25:49;;;;;;;4.57;0.70;;;15.80;99.90;;;;;;5037183;28;20032;-77
2022/07/10 05:28:16;;;;;;;2.55;0.60;;;15.90;99.90;;;;;;5032905;28;20025;-75
2022/07/10 05:30:43;;;;;;;3.05;0.50;;;15.80;99.90;;;;;;5030627;28;20043;-75
2022/07/10 05:33:11;;;;;;;3.65;0.47;;;15.70;99.90;;;;;;5030944;28;20022;-75
2022/07/10 05:35:38;;;;;;;2.63;0.45;;;15.40;99.90;;;;;;5034958;28;20095;-74
2022/07/10 05:38:05;;;;;;;7.80;1.50;;;15.20;99.90;;;;;;5031420;28;20117;-74
2022/07/10 05:40:33;;;;;;;2.85;0.50;;;15.10;99.90;;;;;;5032043;28;20056;-75
2022/07/10 05:43:01;;;;;;;3.60;0.75;;;14.90;99.90;;;;;;5047244;28;20463;-78
2022/07/10 05:45:28;;;;;;;3.92;0.60;;;14.70;99.90;;;;;;5038931;28;20034;-75
2022/07/10 05:47:56;;;;;;;5.50;1.02;;;14.60;99.90;;;;;;5058353;28;20024;-76
2022/07/10 05:50:24;;;;;;;4.40;2.65;;;14.50;99.90;;;;;;5039881;28;20033;-77
2022/07/10 05:52:51;;;;;;;6.75;4.35;;;14.50;99.90;;;;;;5044684;28;20107;-78
2022/07/10 05:55:18;;;;;;;7.25;2.97;;;14.50;99.90;;;;;;5030693;28;20048;-76
2022/07/10 05:57:46;;;;;;;2.38;1.50;;;14.40;99.90;;;;;;5030740;28;20116;-75
2022/07/10 06:00:13;;;;;;;2.65;0.93;;;14.40;99.90;;;;;;5029880;28;20040;-76
2022/07/10 06:02:41;;;;;;;5.07;1.13;;;14.40;99.90;;;;;;5031911;28;20108;-76
2022/07/10 06:05:09;;;;;;;5.47;0.57;;;14.40;99.90;;;;;;5043609;28;20040;-77
2022/07/10 06:07:36;;;;;;;5.30;0.95;;;14.30;99.90;;;;;;5030727;28;20026;-77
2022/07/10 06:10:05;;;;;;;6.72;1.08;;;14.20;99.90;;;;;;5043198;28;20030;-76
2022/07/10 06:12:33;;;;;;;3.72;1.40;;;14.20;99.90;;;;;;5030655;28;20026;-76
2022/07/10 06:15:01;;;;;;;6.05;0.93;;;14.00;99.90;;;;;;5033811;28;20045;-75
2022/07/10 06:17:28;;;;;;;4.28;1.05;;;14.00;99.90;;;;;;5034745;28;20036;-75
2022/07/10 06:19:55;;;;;;;7.53;1.30;;;13.90;99.90;;;;;;5045555;28;20038;-77
2022/07/10 06:22:31;;;;;;;8.13;2.05;;;13.80;99.90;;;;;;5054621;28;20501;-76
2022/07/10 06:25:00;;;;;;;4.18;1.10;;;13.70;99.90;;;;;;5040409;28;20491;-76
2022/07/10 06:27:28;;;;;;;5.70;2.75;;;13.60;99.90;;;;;;5034034;28;20053;-77
2022/07/10 06:29:56;;;;;;;3.75;0.70;;;13.50;99.90;;;;;;5036259;28;20048;-74
2022/07/10 06:32:27;;;;;;;2.35;0.88;;;13.40;99.90;;;;;;5034258;28;20056;-73
2022/07/10 06:34:55;;;;;;;3.70;0.85;;;13.30;99.90;;;;;;5032665;28;20563;-77
2022/07/10 06:37:22;;;;;;;2.38;0.63;;;13.20;99.90;;;;;;5035194;28;20021;-73
2022/07/10 06:39:50;;;;;;;1.88;0.95;;;13.20;99.90;;;;;;5035169;28;20017;-77
2022/07/10 06:42:17;;;;;;;3.25;0.70;;;13.20;99.90;;;;;;5040276;28;20046;-74
2022/07/10 06:44:45;;;;;;;5.45;1.13;;;13.20;99.90;;;;;;5034969;28;20041;-75
2022/07/10 06:50:02;;;;;;;5.30;2.05;;;13.20;99.90;;;;;;5040926;28;20374;-75
2022/07/10 06:52:31;;;;;;;6.90;1.92;;;13.20;99.90;;;;;;5038403;28;20049;-75
2022/07/10 06:54:58;;;;;;;5.50;2.10;;;13.10;99.90;;;;;;5043596;28;20033;-75
2022/07/10 06:57:26;;;;;;;5.30;1.00;;;13.10;99.90;;;;;;5046514;28;20052;-75
2022/07/10 06:59:53;;;;;;;6.35;1.70;;;13.00;99.90;;;;;;5052213;28;20049;-75
2022/07/10 07:02:21;;;;;;;3.17;1.38;;;12.90;99.90;;;;;;5037027;28;20030;-74
2022/07/10 07:04:48;;;;;;;6.68;1.58;;;12.90;99.90;;;;;;5050641;28;20026;-76
2022/07/10 07:07:16;;;;;;;3.33;1.10;;;12.80;99.90;;;;;;5058014;28;20024;-75
2022/07/10 07:09:44;;;;;;;2.38;0.98;;;12.80;99.90;;;;;;5053172;28;20441;-75
2022/07/10 07:12:13;;;;;;;5.72;1.13;;;12.80;99.90;;;;;;5053193;28;20021;-75
2022/07/10 07:14:40;;;;;;;2.35;1.00;;;12.70;99.90;;;;;;5051155;28;20041;-75
2022/07/10 07:17:10;;;;;;;4.28;0.75;;;12.70;99.90;;;;;;5043443;28;20069;-76
2022/07/10 07:25:10;;;;;;;4.35;1.67;;;12.50;99.90;;;;;;5046091;28;20041;-77
2022/07/10 07:27:39;;;;;;;5.57;2.28;;;12.40;99.90;;;;;;5066909;28;20070;-75
2022/07/10 07:30:10;;;;;;;4.30;2.78;;;12.40;99.90;;;;;;5058416;28;20175;-73
2022/07/10 07:32:38;;;;;;;3.15;1.80;;;12.30;99.90;;;;;;5033045;28;20022;-76
2022/07/10 07:35:07;;;;;;;2.38;1.08;;;12.30;99.90;;;;;;5036762;28;20603;-75
2022/07/10 07:37:45;;;;;;;3.83;0.82;;;12.20;99.90;;;;;;5034830;28;20080;-76
2022/07/10 07:40:15;;;;;;;3.72;1.13;;;12.20;99.90;;;;;;5047936;28;20578;-76
2022/07/10 07:42:43;;;;;;;2.65;0.75;;;12.20;99.90;;;;;;5044503;28;20021;-73
2022/07/10 07:45:11;;;;;;;2.00;0.63;;;12.10;99.90;;;;;;5044976;28;20017;-75
2022/07/10 07:47:51;;;;;;;4.30;1.50;;;12.10;99.90;;;;;;5034344;28;20033;-76
2022/07/10 07:50:22;;;;;;;2.28;1.00;;;12.10;99.90;;;;;;5040228;28;20362;-77
2022/07/10 07:52:50;;;;;;;3.05;1.67;;;12.10;99.90;;;;;;5054510;28;20044;-76
2022/07/10 07:55:18;;;;;;;2.92;0.80;;;12.10;99.90;;;;;;5048958;28;20121;-76
2022/07/10 07:57:47;;;;;;;1.52;0.52;;;12.10;99.90;;;;;;5034570;28;20033;-75
2022/07/10 08:00:18;;;;;;;3.70;1.45;;;12.10;99.90;;;;;;5036902;28;20025;-74
2022/07/10 08:02:49;;;;;;;2.42;0.60;;;12.10;99.90;;;;;;5048622;28;20053;-75
2022/07/10 08:05:17;;;;;;;3.90;0.82;;;12.10;99.90;;;;;;5043369;28;20033;-75
2022/07/10 08:07:47;;;;;;;3.00;0.82;;;12.10;99.90;;;;;;5033894;28;20040;-76
2022/07/10 08:10:16;;;;;;;1.63;0.90;;;12.10;99.90;;;;;;5036825;28;20034;-75
2022/07/10 08:12:48;;;;;;;5.00;1.00;;;12.10;99.90;;;;;;5040541;28;20109;-74
2022/07/10 08:15:17;;;;;;;10.27;2.05;;;12.10;99.90;;;;;;5045376;28;20068;-74
2022/07/10 08:17:48;;;;;;;5.38;1.70;;;12.00;99.90;;;;;;5036297;28;20030;-74
2022/07/10 08:20:15;;;;;;;9.80;1.38;;;12.00;99.90;;;;;;5048552;28;20048;-74
2022/07/10 08:22:44;;;;;;;4.78;1.40;;;12.10;99.90;;;;;;5030172;28;20380;-74
2022/07/10 08:25:11;;;;;;;4.43;1.25;;;12.10;99.90;;;;;;5032001;28;20040;-75
2022/07/10 08:27:39;;;;;;;4.28;1.13;;;12.10;99.90;;;;;;5036789;28;20049;-75
2022/07/10 08:30:11;;;;;;;3.53;1.17;;;12.10;99.90;;;;;;5032266;28;20475;-74
2022/07/10 08:32:39;;;;;;;2.95;0.80;;;12.10;99.90;;;;;;5032443;28;20017;-75
2022/07/10 08:35:08;;;;;;;4.18;0.93;;;12.00;99.90;;;;;;5032356;28;20040;-75
2022/07/10 08:37:44;;;;;;;4.25;0.80;;;12.00;99.90;;;;;;5037078;28;20037;-75
2022/07/10 08:40:13;;;;;;;3.03;1.52;;;12.00;99.90;;;;;;5032476;28;20068;-75
2022/07/10 08:42:45;;;;;;;2.78;1.20;;;12.00;99.90;;;;;;5045193;28;20092;-75
2022/07/10 08:45:14;;;;;;;2.08;0.98;;;12.00;99.90;;;;;;5037975;28;20033;-75
2022/07/10 08:47:44;;;;;;;4.13;0.47;;;12.00;99.90;;;;;;5034174;28;20049;-75
2022/07/10 08:50:21;;;;;;;3.25;0.73;;;12.00;99.90;;;;;;5029262;28;20129;-74
2022/07/10 08:53:00;;;;;;;5.82;0.75;;;11.90;99.90;;;;;;5031256;28;20581;-75
2022/07/10 08:55:28;;;;;;;3.20;0.80;;;11.90;99.90;;;;;;5030037;28;20472;-75
2022/07/10 08:57:56;;;;;;;2.50;1.13;;;11.80;99.90;;;;;;5035791;28;20040;-76
2022/07/10 09:00:24;;;;;;;4.50;0.88;;;11.70;99.90;;;;;;5029759;28;20150;-76
2022/07/10 09:02:55;;;;;;;2.67;0.82;;;11.70;99.90;;;;;;5036047;28;20111;-77
2022/07/10 09:05:23;;;;;;;3.08;0.43;;;11.60;99.90;;;;;;5038279;28;20518;-76
2022/07/10 09:07:51;;;;;;;0.65;0.60;;;11.60;99.90;;;;;;5028577;28;20053;-76
2022/07/10 09:10:22;;;;;;;3.60;0.80;;;11.50;99.90;;;;;;5028780;28;20029;-77
2022/07/10 09:12:53;;;;;;;2.75;0.60;;;11.50;99.90;;;;;;5025018;28;20044;-74
2022/07/10 09:15:23;;;;;;;2.22;0.85;;;11.50;99.90;;;;;;5031753;28;20033;-73
2022/07/10 09:17:53;;;;;;;0.60;0.30;;;11.60;99.90;;;;;;5028783;28;20067;-73
2022/07/10 09:20:32;;;;;;;2.20;0.32;;;11.60;99.90;;;;;;5030227;28;20021;-77
2022/07/10 09:23:12;;;;;;;2.42;1.15;;;11.60;99.90;;;;;;5029369;28;20112;-75
2022/07/10 09:25:40;;;;;;;1.58;0.70;;;11.60;99.90;;;;;;5030629;28;20032;-75
2022/07/10 09:28:07;;;;;;;2.13;0.28;;;11.60;99.90;;;;;;5029589;28;20116;-76
2022/07/10 09:30:37;;;;;;;2.03;0.38;;;11.50;99.90;;;;;;5046208;28;20474;-77
2022/07/10 09:33:29;;;;;;;0.70;0.30;;;11.50;99.90;;;;;;5044535;28;20041;-76
2022/07/10 09:36:06;;;;;;;0.95;0.38;;;11.50;99.90;;;;;;5031055;28;20037;-77
2022/07/10 09:38:46;;;;;;;1.75;0.60;;;11.40;99.90;;;;;;5029869;28;20096;-76
2022/07/10 09:41:27;;;;;;;3.08;0.57;;;11.40;99.90;;;;;;5029703;28;20110;-75
2022/07/10 09:44:05;;;;;;;2.28;0.40;;;11.50;99.90;;;;;;5057354;28;20422;-75
2022/07/10 09:46:39;;;;;;;1.77;1.38;;;11.50;99.90;;;;;;5037300;28;20024;-77
2022/07/10 09:49:10;;;;;;;7.05;4.78;;;11.40;99.90;;;;;;5069954;28;20039;-74
2022/07/10 09:51:39;;;;;;;13.77;10.50;;;11.50;99.90;;;;;;5045339;28;20029;-75
2022/07/10 09:54:08;;;;;;;8.68;4.70;;;11.50;99.90;;;;;;5050277;28;20123;-76
2022/07/10 09:56:46;;;;;;;8.80;6.95;;;11.50;99.90;;;;;;5048508;28;20139;-76
2022/07/10 09:59:16;;;;;;;10.32;4.75;;;11.60;99.90;;;;;;5033359;28;20415;-76
2022/07/10 10:01:46;;;;;;;3.72;3.17;;;11.60;99.90;;;;;;5044730;28;20069;-77
2022/07/10 10:04:16;;;;;;;5.03;1.92;;;11.60;99.90;;;;;;5041986;28;20021;-78
2022/07/10 10:06:44;;;;;;;2.22;1.25;;;11.60;99.90;;;;;;5052082;28;20025;-77
2022/07/10 10:09:22;;;;;;;7.53;3.67;;;11.60;99.90;;;;;;5055745;28;20104;-77
2022/07/10 10:11:55;;;;;;;5.53;3.40;;;11.70;99.90;;;;;;5038247;28;20462;-78
2022/07/10 10:14:24;;;;;;;4.47;4.07;;;11.70;99.90;;;;;;5045136;28;20029;-76
2022/07/10 10:16:52;;;;;;;4.78;3.22;;;11.70;99.90;;;;;;5044039;28;20395;-74
2022/07/10 10:22:09;;;;;;;5.80;3.95;;;11.60;99.90;;;;;;5040033;28;20036;-75
2022/07/10 10:24:41;;;;;;;6.63;4.85;;;11.60;99.90;;;;;;5066301;28;20395;-75
2022/07/10 10:27:10;;;;;;;5.63;5.13;;;11.60;99.90;;;;;;5037413;28;20475;-77
2022/07/10 10:29:39;;;;;;;4.88;3.60;;;11.50;99.90;;;;;;5033709;28;20033;-74
2022/07/10 10:32:09;;;;;;;3.63;2.75;;;11.50;99.90;;;;;;5032657;28;20140;-75
2022/07/10 10:34:43;;;;;;;3.17;0.90;;;11.50;99.90;;;;;;5041678;28;20091;-78
2022/07/10 10:37:29;;;;;;;3.53;0.93;;;11.50;99.90;;;;;;5045224;28;20033;-76
2022/07/10 10:39:57;;;;;;;1.65;0.98;;;11.50;99.90;;;;;;5053802;28;20456;-76
2022/07/10 10:42:34;;;;;;;1.83;1.10;;;11.50;99.90;;;;;;5040882;28;20091;-77
2022/07/10 10:45:34;;;;;;;3.47;2.25;;;11.40;99.90;;;;;;5038385;28;20034;-74
2022/07/10 10:48:06;;;;;;;1.65;1.40;;;11.40;99.90;;;;;;5038844;28;20033;-77
2022/07/10 10:50:59;;;;;;;3.15;1.27;;;11.40;99.90;;;;;;5033561;28;20068;-79
2022/07/10 10:53:31;;;;;;;5.10;1.08;;;11.50;99.90;;;;;;5041730;28;20075;-79
2022/07/10 10:56:04;;;;;;;1.48;0.80;;;11.40;99.90;;;;;;5035516;28;20435;-76
2022/07/10 10:58:39;;;;;;;5.80;0.90;;;11.40;99.90;;;;;;5043553;28;20498;-75
2022/07/10 11:01:28;;;;;;;2.20;0.20;;;11.50;99.90;;;;;;5036808;28;20037;-76
2022/07/10 11:04:16;;;;;;;1.63;0.70;;;11.50;99.90;;;;;;5044762;28;20038;-75
2022/07/10 11:06:52;;;;;;;1.55;0.57;;;11.50;99.90;;;;;;5048360;28;20017;-73
2022/07/10 11:09:34;;;;;;;0.63;0.28;;;11.50;99.90;;;;;;5047646;28;20024;-77
2022/07/10 11:12:12;;;;;;;2.10;0.30;;;11.50;99.90;;;;;;5033691;28;20092;-75
2022/07/10 11:14:54;;;;;;;1.05;0.30;;;11.50;99.90;;;;;;5053638;28;20029;-77
2022/07/10 11:17:29;;;;;;;1.05;0.50;;;11.40;99.90;;;;;;5048772;28;20028;-76
2022/07/10 11:19:57;;;;;;;0.75;0.35;;;11.40;99.90;;;;;;5045222;28;20360;-82
2022/07/10 11:22:25;;;;;;;5.25;0.70;;;11.40;99.90;;;;;;5052610;28;20092;-82
2022/07/10 11:24:52;;;;;;;2.80;0.73;;;11.30;99.90;;;;;;5047500;28;20176;-79
2022/07/10 11:28:01;;;;;;;2.00;0.77;;;11.30;99.90;;;;;;5030101;28;20033;-79
2022/07/10 11:30:29;;;;;;;7.00;0.82;;;11.30;99.90;;;;;;5032654;28;20060;-78
2022/07/10 11:33:03;;;;;;;8.13;4.88;;;11.40;99.90;;;;;;5039698;28;20037;-77
2022/07/10 11:35:31;;;;;;;10.73;6.57;;;11.40;99.90;;;;;;5031718;28;20047;-78
2022/07/10 11:37:58;;;;;;;7.25;5.30;;;11.40;99.90;;;;;;5036236;28;20025;-75
2022/07/10 11:40:26;;;;;;;10.45;4.55;;;11.40;99.90;;;;;;5047373;28;20032;-78
2022/07/10 11:42:55;;;;;;;3.25;1.77;;;11.40;99.90;;;;;;5061256;28;20032;-75
2022/07/10 11:45:28;;;;;;;4.13;1.02;;;11.50;99.90;;;;;;5053535;28;20083;-79
2022/07/10 11:47:56;;;;;;;1.77;0.50;;;11.40;99.90;;;;;;5033565;28;20608;-81
2022/07/10 11:50:24;;;;;;;2.25;0.80;;;11.50;99.90;;;;;;5040331;28;20036;-82
2022/07/10 11:52:53;;;;;;;3.13;0.60;;;11.40;99.90;;;;;;5041329;28;20048;-81
2022/07/10 11:55:22;;;;;;;2.90;1.20;;;11.40;99.90;;;;;;5030587;28;20076;-79
2022/07/10 11:57:50;;;;;;;3.25;0.93;;;11.40;99.90;;;;;;5030725;28;20072;-79
2022/07/10 12:00:30;;;;;;;2.45;1.52;;;11.50;99.90;;;;;;5031572;28;20071;-79
2022/07/10 12:03:19;;;;;;;2.47;0.73;;;11.50;99.90;;;;;;5034753;28;20067;-82
2022/07/10 12:05:50;;;;;;;0.88;0.40;;;11.50;99.90;;;;;;5032072;28;20487;-76
2022/07/10 12:08:19;;;;;;;2.67;1.02;;;11.50;99.90;;;;;;5032368;28;20091;-76
2022/07/10 12:10:46;;;;;;;2.33;0.60;;;11.40;99.90;;;;;;5035398;28;20021;-76
2022/07/10 12:13:15;;;;;;;3.70;0.70;;;11.40;99.90;;;;;;5030996;28;20099;-80
2022/07/10 12:15:44;;;;;;;0.98;0.52;;;11.40;99.90;;;;;;5031991;28;20055;-78
2022/07/10 12:18:23;;;;;;;2.58;0.50;;;11.40;99.90;;;;;;5033378;28;20033;-81
2022/07/10 12:20:52;;;;;;;1.23;0.40;;;11.40;99.90;;;;;;5032466;28;20033;-78
2022/07/10 12:23:22;;;;;;;3.42;0.50;;;11.30;99.90;;;;;;5029835;28;20022;-75
2022/07/10 12:25:50;;;;;;;2.05;0.50;;;11.40;99.90;;;;;;5030069;28;20044;-77
2022/07/10 12:28:18;;;;;;;3.25;0.60;;;11.40;99.90;;;;;;5044912;28;20489;-78
2022/07/10 12:30:49;;;;;;;2.70;0.38;;;11.40;99.90;;;;;;5045627;28;20056;-75
2022/07/10 12:33:23;;;;;;;2.00;0.40;;;11.40;99.90;;;;;;5031224;28;20155;-77
2022/07/10 12:35:58;;;;;;;3.50;0.63;;;11.40;99.90;;;;;;5043864;28;20048;-77
2022/07/10 12:38:33;;;;;;;1.95;0.50;;;11.30;99.90;;;;;;5064417;28;20504;-78
2022/07/10 12:41:12;;;;;;;2.17;0.50;;;11.30;99.90;;;;;;5044094;28;20940;-77
2022/07/10 12:43:40;;;;;;;1.63;0.50;;;11.10;99.90;;;;;;5052688;28;20032;-79
2022/07/10 12:46:22;;;;;;;1.10;0.38;;;11.10;99.90;;;;;;5063406;28;20260;-79
2022/07/10 12:49:03;;;;;;;2.08;0.40;;;10.90;99.90;;;;;;5066701;28;20074;-77
2022/07/10 12:51:43;;;;;;;0.85;0.47;;;10.90;99.90;;;;;;5058811;28;20367;-79
2022/07/10 12:54:29;;;;;;;2.80;0.43;;;10.80;99.90;;;;;;5051252;28;20352;-77
2022/07/10 12:57:01;;;;;;;1.88;0.40;;;10.80;99.90;;;;;;5035408;28;20421;-75
2022/07/10 12:59:31;;;;;;;0.70;0.30;;;10.70;99.90;;;;;;5045995;28;20021;-78
2022/07/10 13:01:58;;;;;;;2.75;0.85;;;10.70;99.90;;;;;;5038800;28;20117;-76
2022/07/10 13:04:27;;;;;;;1.00;0.35;;;10.70;99.90;;;;;;5042679;28;20406;-80
2022/07/10 13:06:55;;;;;;;0.90;0.85;;;10.60;99.90;;;;;;5036664;28;20037;-78
2022/07/10 13:09:26;;;;;;;3.97;0.38;;;10.60;99.90;;;;;;5048633;28;20075;-79
2022/07/10 13:11:54;;;;;;;2.05;0.50;;;10.50;99.90;;;;;;5049342;28;20033;-77
2022/07/10 13:14:22;;;;;;;2.50;0.40;;;10.50;99.90;;;;;;5055038;28;20036;-78
2022/07/10 13:16:50;;;;;;;2.53;0.40;;;10.50;99.90;;;;;;5055033;28;20040;-78